sensor_id;sensor_type;location;lat;lon;timestamp;P1;durP1;ratioP1;P2;durP2;ratioP2
7557;SDS011;3820;51.098;13.716;2022-07-12T00:01:09;0.70;;;0.70;;
7557;SDS011;3820;51.098;13.716;2022-07-12T00:03:35;0.50;;;0.50;;
7557;SDS011;3820;51.098;13.716;2022-07-12T00:06:02;0.50;;;0.47;;
7557;SDS011;3820;51.098;13.716;2022-07-12T00:12:10;0.63;;;0.63;;
7557;SDS011;3820;51.098;13.716;2022-07-12T00:14:37;1.15;;;0.85;;
7557;SDS011;3820;51.098;13.716;2022-07-12T00:17:03;0.40;;;0.40;;
7557;SDS011;3820;51.098;13.716;2022-07-12T00:19:31;0.45;;;0.45;;
7557;SDS011;3820;51.098;13.716;2022-07-12T00:21:58;1.27;;;0.90;;
7557;SDS011;3820;51.098;13.716;2022-07-12T00:24:24;0.50;;;0.50;;
7557;SDS011;3820;51.098;13.716;2022-07-12T00:26:51;0.40;;;0.40;;
7557;SDS011;3820;51.098;13.716;2022-07-12T00:29:18;1.25;;;1.05;;
7557;SDS011;3820;51.098;13.716;2022-07-12T00:31:45;0.68;;;0.52;;
7557;SDS011;3820;51.098;13.716;2022-07-12T00:34:11;0.50;;;0.50;;
7557;SDS011;3820;51.098;13.716;2022-07-12T00:36:38;3.70;;;1.42;;
7557;SDS011;3820;51.098;13.716;2022-07-12T00:39:04;0.98;;;0.73;;
7557;SDS011;3820;51.098;13.716;2022-07-12T00:41:31;0.60;;;0.60;;
7557;SDS011;3820;51.098;13.716;2022-07-12T00:43:57;0.82;;;0.82;;
7557;SDS011;3820;51.098;13.716;2022-07-12T00:46:23;0.90;;;0.68;;
7557;SDS011;3820;51.098;13.716;2022-07-12T00:48:50;1.60;;;0.95;;
7557;SDS011;3820;51.098;13.716;2022-07-12T00:51:18;0.60;;;0.60;;
7557;SDS011;3820;51.098;13.716;2022-07-12T00:57:25;1.75;;;0.93;;
7557;SDS011;3820;51.098;13.716;2022-07-12T00:59:51;2.88;;;0.77;;
7557;SDS011;3820;51.098;13.716;2022-07-12T01:02:18;0.60;;;0.60;;
7557;SDS011;3820;51.098;13.716;2022-07-12T01:04:44;0.82;;;0.47;;
7557;SDS011;3820;51.098;13.716;2022-07-12T01:07:12;0.40;;;0.40;;
7557;SDS011;3820;51.098;13.716;2022-07-12T01:09:39;0.90;;;0.90;;
7557;SDS011;3820;51.098;13.716;2022-07-12T01:12:06;0.65;;;0.65;;
7557;SDS011;3820;51.098;13.716;2022-07-12T01:14:33;0.45;;;0.45;;
7557;SDS011;3820;51.098;13.716;2022-07-12T01:17:00;0.65;;;0.65;;
7557;SDS011;3820;51.098;13.716;2022-07-12T01:23:08;0.70;;;0.70;;
7557;SDS011;3820;51.098;13.716;2022-07-12T01:25:35;0.45;;;0.45;;
7557;SDS011;3820;51.098;13.716;2022-07-12T01:28:01;0.60;;;0.60;;
7557;SDS011;3820;51.098;13.716;2022-07-12T01:30:28;1.20;;;1.10;;
7557;SDS011;3820;51.098;13.716;2022-07-12T01:32:54;0.50;;;0.50;;
7557;SDS011;3820;51.098;13.716;2022-07-12T01:35:23;0.65;;;0.65;;
7557;SDS011;3820;51.098;13.716;2022-07-12T01:37:51;1.25;;;1.15;;
7557;SDS011;3820;51.098;13.716;2022-07-12T01:40:18;0.40;;;0.40;;
7557;SDS011;3820;51.098;13.716;2022-07-12T01:42:44;0.47;;;0.47;;
7557;SDS011;3820;51.098;13.716;2022-07-12T01:45:12;0.90;;;0.90;;
7557;SDS011;3820;51.098;13.716;2022-07-12T01:47:39;0.98;;;0.95;;
7557;SDS011;3820;51.098;13.716;2022-07-12T01:50:07;0.47;;;0.47;;
7557;SDS011;3820;51.098;13.716;2022-07-12T01:52:35;1.15;;;0.60;;
7557;SDS011;3820;51.098;13.716;2022-07-12T01:58:43;0.60;;;0.60;;
7557;SDS011;3820;51.098;13.716;2022-07-12T02:01:10;0.88;;;0.60;;
7557;SDS011;3820;51.098;13.716;2022-07-12T02:03:37;0.60;;;0.60;;
7557;SDS011;3820;51.098;13.716;2022-07-12T02:06:04;0.85;;;0.60;;
7557;SDS011;3820;51.098;13.716;2022-07-12T02:08:30;0.65;;;0.65;;
7557;SDS011;3820;51.098;13.716;2022-07-12T02:10:57;0.68;;;0.47;;
7557;SDS011;3820;51.098;13.716;2022-07-12T02:13:23;1.20;;;0.57;;
7557;SDS011;3820;51.098;13.716;2022-07-12T02:15:49;0.60;;;0.60;;
7557;SDS011;3820;51.098;13.716;2022-07-12T02:18:16;1.02;;;0.68;;
7557;SDS011;3820;51.098;13.716;2022-07-12T02:20:42;0.50;;;0.50;;
7557;SDS011;3820;51.098;13.716;2022-07-12T02:23:09;0.93;;;0.70;;
7557;SDS011;3820;51.098;13.716;2022-07-12T02:29:16;0.52;;;0.52;;
7557;SDS011;3820;51.098;13.716;2022-07-12T02:31:43;0.68;;;0.50;;
7557;SDS011;3820;51.098;13.716;2022-07-12T02:34:09;0.60;;;0.60;;
7557;SDS011;3820;51.098;13.716;2022-07-12T02:36:36;0.98;;;0.85;;
7557;SDS011;3820;51.098;13.716;2022-07-12T02:39:03;0.60;;;0.60;;
7557;SDS011;3820;51.098;13.716;2022-07-12T02:41:30;0.35;;;0.35;;
7557;SDS011;3820;51.098;13.716;2022-07-12T02:43:57;0.57;;;0.57;;
7557;SDS011;3820;51.098;13.716;2022-07-12T02:46:24;0.73;;;0.68;;
7557;SDS011;3820;51.098;13.716;2022-07-12T02:48:50;0.60;;;0.60;;
7557;SDS011;3820;51.098;13.716;2022-07-12T02:51:18;0.50;;;0.47;;
7557;SDS011;3820;51.098;13.716;2022-07-12T02:53:45;0.45;;;0.45;;
7557;SDS011;3820;51.098;13.716;2022-07-12T02:56:11;0.60;;;0.60;;
7557;SDS011;3820;51.098;13.716;2022-07-12T02:58:38;0.40;;;0.40;;
7557;SDS011;3820;51.098;13.716;2022-07-12T03:01:04;0.30;;;0.30;;
7557;SDS011;3820;51.098;13.716;2022-07-12T03:03:31;0.77;;;0.77;;
7557;SDS011;3820;51.098;13.716;2022-07-12T03:05:57;0.40;;;0.40;;
7557;SDS011;3820;51.098;13.716;2022-07-12T03:08:24;0.43;;;0.43;;
7557;SDS011;3820;51.098;13.716;2022-07-12T03:10:50;1.95;;;0.82;;
7557;SDS011;3820;51.098;13.716;2022-07-12T03:13:17;0.63;;;0.63;;
7557;SDS011;3820;51.098;13.716;2022-07-12T03:15:44;1.27;;;0.85;;
7557;SDS011;3820;51.098;13.716;2022-07-12T03:18:12;0.68;;;0.68;;
7557;SDS011;3820;51.098;13.716;2022-07-12T03:20:40;0.90;;;0.88;;
7557;SDS011;3820;51.098;13.716;2022-07-12T03:23:07;0.93;;;0.93;;
7557;SDS011;3820;51.098;13.716;2022-07-12T03:29:14;0.50;;;0.50;;
7557;SDS011;3820;51.098;13.716;2022-07-12T03:31:41;0.65;;;0.60;;
7557;SDS011;3820;51.098;13.716;2022-07-12T03:34:08;0.50;;;0.50;;
7557;SDS011;3820;51.098;13.716;2022-07-12T03:36:34;0.85;;;0.85;;
7557;SDS011;3820;51.098;13.716;2022-07-12T03:39:01;0.85;;;0.85;;
7557;SDS011;3820;51.098;13.716;2022-07-12T03:41:27;0.60;;;0.60;;
7557;SDS011;3820;51.098;13.716;2022-07-12T03:43:53;0.60;;;0.60;;
7557;SDS011;3820;51.098;13.716;2022-07-12T03:46:20;0.80;;;0.80;;
7557;SDS011;3820;51.098;13.716;2022-07-12T03:48:46;0.82;;;0.60;;
7557;SDS011;3820;51.098;13.716;2022-07-12T03:51:13;1.35;;;0.88;;
7557;SDS011;3820;51.098;13.716;2022-07-12T03:53:39;0.85;;;0.65;;
7557;SDS011;3820;51.098;13.716;2022-07-12T03:56:06;0.90;;;0.90;;
7557;SDS011;3820;51.098;13.716;2022-07-12T03:58:33;0.68;;;0.68;;
7557;SDS011;3820;51.098;13.716;2022-07-12T04:00:59;0.55;;;0.55;;
7557;SDS011;3820;51.098;13.716;2022-07-12T04:03:26;0.77;;;0.50;;
7557;SDS011;3820;51.098;13.716;2022-07-12T04:05:52;1.00;;;0.57;;
7557;SDS011;3820;51.098;13.716;2022-07-12T04:08:26;0.68;;;0.68;;
7557;SDS011;3820;51.098;13.716;2022-07-12T04:10:52;0.80;;;0.80;;
7557;SDS011;3820;51.098;13.716;2022-07-12T04:13:18;0.60;;;0.55;;
7557;SDS011;3820;51.098;13.716;2022-07-12T04:15:45;0.70;;;0.70;;
7557;SDS011;3820;51.098;13.716;2022-07-12T04:18:11;0.57;;;0.50;;
7557;SDS011;3820;51.098;13.716;2022-07-12T04:20:39;1.95;;;1.30;;
7557;SDS011;3820;51.098;13.716;2022-07-12T04:23:05;1.27;;;0.98;;
7557;SDS011;3820;51.098;13.716;2022-07-12T04:25:32;1.10;;;0.60;;
7557;SDS011;3820;51.098;13.716;2022-07-12T04:27:58;1.00;;;0.95;;
7557;SDS011;3820;51.098;13.716;2022-07-12T04:34:05;0.55;;;0.55;;
7557;SDS011;3820;51.098;13.716;2022-07-12T04:36:32;0.63;;;0.63;;
7557;SDS011;3820;51.098;13.716;2022-07-12T04:38:59;1.52;;;1.05;;
7557;SDS011;3820;51.098;13.716;2022-07-12T04:41:26;0.98;;;0.98;;
7557;SDS011;3820;51.098;13.716;2022-07-12T04:43:52;0.77;;;0.70;;
7557;SDS011;3820;51.098;13.716;2022-07-12T04:46:19;0.40;;;0.40;;
7557;SDS011;3820;51.098;13.716;2022-07-12T04:48:45;0.82;;;0.70;;
7557;SDS011;3820;51.098;13.716;2022-07-12T04:51:11;1.17;;;1.15;;
7557;SDS011;3820;51.098;13.716;2022-07-12T04:53:38;1.35;;;0.90;;
7557;SDS011;3820;51.098;13.716;2022-07-12T04:59:45;1.13;;;0.80;;
7557;SDS011;3820;51.098;13.716;2022-07-12T05:02:11;0.77;;;0.77;;
7557;SDS011;3820;51.098;13.716;2022-07-12T05:04:38;1.20;;;0.60;;
7557;SDS011;3820;51.098;13.716;2022-07-12T05:10:45;1.15;;;1.00;;
7557;SDS011;3820;51.098;13.716;2022-07-12T05:13:11;2.72;;;1.08;;
7557;SDS011;3820;51.098;13.716;2022-07-12T05:15:37;1.00;;;0.90;;
7557;SDS011;3820;51.098;13.716;2022-07-12T05:18:04;1.38;;;0.90;;
7557;SDS011;3820;51.098;13.716;2022-07-12T05:20:31;0.55;;;0.55;;
7557;SDS011;3820;51.098;13.716;2022-07-12T05:22:57;0.95;;;0.93;;
7557;SDS011;3820;51.098;13.716;2022-07-12T05:25:24;1.25;;;1.15;;
7557;SDS011;3820;51.098;13.716;2022-07-12T05:27:50;1.15;;;1.00;;
7557;SDS011;3820;51.098;13.716;2022-07-12T05:30:17;2.28;;;1.20;;
7557;SDS011;3820;51.098;13.716;2022-07-12T05:32:43;1.40;;;1.08;;
7557;SDS011;3820;51.098;13.716;2022-07-12T05:35:10;3.60;;;2.50;;
7557;SDS011;3820;51.098;13.716;2022-07-12T05:37:36;1.77;;;1.25;;
7557;SDS011;3820;51.098;13.716;2022-07-12T05:40:03;2.00;;;1.77;;
7557;SDS011;3820;51.098;13.716;2022-07-12T05:42:30;1.30;;;0.93;;
7557;SDS011;3820;51.098;13.716;2022-07-12T05:44:56;1.42;;;1.33;;
7557;SDS011;3820;51.098;13.716;2022-07-12T05:47:22;1.90;;;1.10;;
7557;SDS011;3820;51.098;13.716;2022-07-12T05:49:49;1.15;;;1.05;;
7557;SDS011;3820;51.098;13.716;2022-07-12T05:52:15;1.83;;;1.33;;
7557;SDS011;3820;51.098;13.716;2022-07-12T05:55:00;2.63;;;1.70;;
7557;SDS011;3820;51.098;13.716;2022-07-12T05:57:27;1.90;;;1.65;;
7557;SDS011;3820;51.098;13.716;2022-07-12T05:59:54;2.40;;;1.80;;
7557;SDS011;3820;51.098;13.716;2022-07-12T06:02:20;1.15;;;1.05;;
7557;SDS011;3820;51.098;13.716;2022-07-12T06:04:47;1.52;;;1.02;;
7557;SDS011;3820;51.098;13.716;2022-07-12T06:07:16;0.80;;;0.80;;
7557;SDS011;3820;51.098;13.716;2022-07-12T06:09:43;1.38;;;1.05;;
7557;SDS011;3820;51.098;13.716;2022-07-12T06:12:09;0.98;;;0.95;;
7557;SDS011;3820;51.098;13.716;2022-07-12T06:14:36;1.13;;;0.88;;
7557;SDS011;3820;51.098;13.716;2022-07-12T06:17:03;5.25;;;1.20;;
7557;SDS011;3820;51.098;13.716;2022-07-12T06:19:29;1.42;;;1.30;;
7557;SDS011;3820;51.098;13.716;2022-07-12T06:21:56;1.42;;;1.27;;
7557;SDS011;3820;51.098;13.716;2022-07-12T06:24:22;1.85;;;0.90;;
7557;SDS011;3820;51.098;13.716;2022-07-12T06:26:48;2.25;;;1.08;;
7557;SDS011;3820;51.098;13.716;2022-07-12T06:29:15;1.80;;;1.20;;
7557;SDS011;3820;51.098;13.716;2022-07-12T06:31:41;1.33;;;1.23;;
7557;SDS011;3820;51.098;13.716;2022-07-12T06:34:08;1.17;;;1.08;;
7557;SDS011;3820;51.098;13.716;2022-07-12T06:36:34;1.23;;;1.13;;
7557;SDS011;3820;51.098;13.716;2022-07-12T06:39:01;1.10;;;1.00;;
7557;SDS011;3820;51.098;13.716;2022-07-12T06:41:27;1.23;;;0.90;;
7557;SDS011;3820;51.098;13.716;2022-07-12T06:43:55;1.85;;;1.05;;
7557;SDS011;3820;51.098;13.716;2022-07-12T06:46:22;1.73;;;1.00;;
7557;SDS011;3820;51.098;13.716;2022-07-12T06:48:48;1.75;;;1.15;;
7557;SDS011;3820;51.098;13.716;2022-07-12T06:51:21;1.67;;;1.10;;
7557;SDS011;3820;51.098;13.716;2022-07-12T06:53:48;1.35;;;0.85;;
7557;SDS011;3820;51.098;13.716;2022-07-12T06:56:14;1.60;;;0.90;;
7557;SDS011;3820;51.098;13.716;2022-07-12T06:58:41;4.10;;;1.10;;
7557;SDS011;3820;51.098;13.716;2022-07-12T07:01:07;0.93;;;0.73;;
7557;SDS011;3820;51.098;13.716;2022-07-12T07:03:34;0.82;;;0.75;;
7557;SDS011;3820;51.098;13.716;2022-07-12T07:06:00;0.93;;;0.80;;
7557;SDS011;3820;51.098;13.716;2022-07-12T07:08:27;2.38;;;1.00;;
7557;SDS011;3820;51.098;13.716;2022-07-12T07:10:53;1.42;;;0.75;;
7557;SDS011;3820;51.098;13.716;2022-07-12T07:13:20;1.58;;;0.95;;
7557;SDS011;3820;51.098;13.716;2022-07-12T07:15:46;1.55;;;1.02;;
7557;SDS011;3820;51.098;13.716;2022-07-12T07:18:13;1.10;;;1.00;;
7557;SDS011;3820;51.098;13.716;2022-07-12T07:20:39;1.80;;;0.75;;
7557;SDS011;3820;51.098;13.716;2022-07-12T07:23:07;1.33;;;1.05;;
7557;SDS011;3820;51.098;13.716;2022-07-12T07:25:33;1.00;;;0.90;;
7557;SDS011;3820;51.098;13.716;2022-07-12T07:27:59;1.27;;;0.90;;
7557;SDS011;3820;51.098;13.716;2022-07-12T07:30:26;1.10;;;0.85;;
7557;SDS011;3820;51.098;13.716;2022-07-12T07:33:11;1.30;;;0.95;;
7557;SDS011;3820;51.098;13.716;2022-07-12T07:35:39;1.00;;;0.90;;
7557;SDS011;3820;51.098;13.716;2022-07-12T07:38:06;1.30;;;0.80;;
7557;SDS011;3820;51.098;13.716;2022-07-12T07:40:33;0.65;;;0.65;;
7557;SDS011;3820;51.098;13.716;2022-07-12T07:43:00;1.52;;;0.43;;
7557;SDS011;3820;51.098;13.716;2022-07-12T07:45:26;1.00;;;0.85;;
7557;SDS011;3820;51.098;13.716;2022-07-12T07:47:53;0.82;;;0.70;;
7557;SDS011;3820;51.098;13.716;2022-07-12T07:50:39;1.10;;;0.95;;
7557;SDS011;3820;51.098;13.716;2022-07-12T07:53:06;0.47;;;0.45;;
7557;SDS011;3820;51.098;13.716;2022-07-12T07:55:32;3.35;;;1.00;;
7557;SDS011;3820;51.098;13.716;2022-07-12T07:57:59;2.63;;;0.80;;
7557;SDS011;3820;51.098;13.716;2022-07-12T08:00:26;1.23;;;0.77;;
7557;SDS011;3820;51.098;13.716;2022-07-12T08:02:54;0.95;;;0.73;;
7557;SDS011;3820;51.098;13.716;2022-07-12T08:05:21;0.30;;;0.30;;
7557;SDS011;3820;51.098;13.716;2022-07-12T08:07:54;2.15;;;0.80;;
7557;SDS011;3820;51.098;13.716;2022-07-12T08:10:21;0.68;;;0.60;;
7557;SDS011;3820;51.098;13.716;2022-07-12T08:12:47;1.00;;;0.85;;
7557;SDS011;3820;51.098;13.716;2022-07-12T08:15:14;1.23;;;0.65;;
7557;SDS011;3820;51.098;13.716;2022-07-12T08:17:40;1.45;;;0.85;;
7557;SDS011;3820;51.098;13.716;2022-07-12T08:20:12;1.30;;;0.60;;
7557;SDS011;3820;51.098;13.716;2022-07-12T08:22:59;0.88;;;0.60;;
7557;SDS011;3820;51.098;13.716;2022-07-12T08:25:25;0.60;;;0.40;;
7557;SDS011;3820;51.098;13.716;2022-07-12T08:27:55;0.73;;;0.60;;
7557;SDS011;3820;51.098;13.716;2022-07-12T08:30:21;1.70;;;0.50;;
7557;SDS011;3820;51.098;13.716;2022-07-12T08:32:48;0.77;;;0.50;;
7557;SDS011;3820;51.098;13.716;2022-07-12T08:35:15;0.70;;;0.63;;
7557;SDS011;3820;51.098;13.716;2022-07-12T08:37:42;0.63;;;0.45;;
7557;SDS011;3820;51.098;13.716;2022-07-12T08:40:08;1.27;;;0.73;;
7557;SDS011;3820;51.098;13.716;2022-07-12T08:42:35;0.60;;;0.50;;
7557;SDS011;3820;51.098;13.716;2022-07-12T08:45:02;0.85;;;0.60;;
7557;SDS011;3820;51.098;13.716;2022-07-12T08:47:29;0.43;;;0.40;;
7557;SDS011;3820;51.098;13.716;2022-07-12T08:50:11;0.60;;;0.45;;
7557;SDS011;3820;51.098;13.716;2022-07-12T08:52:39;0.75;;;0.65;;
7557;SDS011;3820;51.098;13.716;2022-07-12T08:55:18;4.97;;;0.80;;
7557;SDS011;3820;51.098;13.716;2022-07-12T08:57:48;0.57;;;0.50;;
7557;SDS011;3820;51.098;13.716;2022-07-12T09:00:16;0.55;;;0.52;;
7557;SDS011;3820;51.098;13.716;2022-07-12T09:02:44;0.40;;;0.40;;
7557;SDS011;3820;51.098;13.716;2022-07-12T09:05:12;0.93;;;0.60;;
7557;SDS011;3820;51.098;13.716;2022-07-12T09:07:40;0.63;;;0.40;;
7557;SDS011;3820;51.098;13.716;2022-07-12T09:10:07;0.52;;;0.38;;
7557;SDS011;3820;51.098;13.716;2022-07-12T09:12:35;0.47;;;0.47;;
7557;SDS011;3820;51.098;13.716;2022-07-12T09:15:11;0.60;;;0.50;;
7557;SDS011;3820;51.098;13.716;2022-07-12T09:17:38;0.20;;;0.20;;
7557;SDS011;3820;51.098;13.716;2022-07-12T09:20:05;0.65;;;0.32;;
7557;SDS011;3820;51.098;13.716;2022-07-12T09:22:36;0.40;;;0.40;;
7557;SDS011;3820;51.098;13.716;2022-07-12T09:25:09;0.52;;;0.43;;
7557;SDS011;3820;51.098;13.716;2022-07-12T09:27:46;0.30;;;0.25;;
7557;SDS011;3820;51.098;13.716;2022-07-12T09:30:26;0.10;;;0.10;;
7557;SDS011;3820;51.098;13.716;2022-07-12T09:35:58;0.70;;;0.20;;
7557;SDS011;3820;51.098;13.716;2022-07-12T09:38:51;0.22;;;0.22;;
7557;SDS011;3820;51.098;13.716;2022-07-12T09:41:27;0.28;;;0.25;;
7557;SDS011;3820;51.098;13.716;2022-07-12T09:43:54;0.25;;;0.25;;
7557;SDS011;3820;51.098;13.716;2022-07-12T09:46:22;0.20;;;0.20;;
7557;SDS011;3820;51.098;13.716;2022-07-12T09:48:50;1.00;;;0.52;;
7557;SDS011;3820;51.098;13.716;2022-07-12T09:51:17;0.30;;;0.30;;
7557;SDS011;3820;51.098;13.716;2022-07-12T09:53:47;0.30;;;0.30;;
7557;SDS011;3820;51.098;13.716;2022-07-12T09:56:15;0.20;;;0.20;;
7557;SDS011;3820;51.098;13.716;2022-07-12T10:01:20;0.20;;;0.20;;
7557;SDS011;3820;51.098;13.716;2022-07-12T10:03:47;0.38;;;0.20;;
7557;SDS011;3820;51.098;13.716;2022-07-12T10:06:23;0.32;;;0.20;;
7557;SDS011;3820;51.098;13.716;2022-07-12T10:09:00;0.20;;;0.20;;
7557;SDS011;3820;51.098;13.716;2022-07-12T10:11:27;0.40;;;0.30;;
7557;SDS011;3820;51.098;13.716;2022-07-12T10:14:13;0.40;;;0.25;;
7557;SDS011;3820;51.098;13.716;2022-07-12T10:16:41;0.20;;;0.20;;
7557;SDS011;3820;51.098;13.716;2022-07-12T10:19:29;1.25;;;0.22;;
7557;SDS011;3820;51.098;13.716;2022-07-12T10:21:57;0.10;;;0.10;;
7557;SDS011;3820;51.098;13.716;2022-07-12T10:26:58;0.20;;;0.10;;
7557;SDS011;3820;51.098;13.716;2022-07-12T10:29:40;0.10;;;0.10;;
7557;SDS011;3820;51.098;13.716;2022-07-12T10:34:56;0.15;;;0.15;;
7557;SDS011;3820;51.098;13.716;2022-07-12T10:37:24;0.20;;;0.20;;
7557;SDS011;3820;51.098;13.716;2022-07-12T10:42:37;0.60;;;0.15;;
7557;SDS011;3820;51.098;13.716;2022-07-12T10:45:16;0.30;;;0.30;;
7557;SDS011;3820;51.098;13.716;2022-07-12T10:47:55;0.28;;;0.28;;
7557;SDS011;3820;51.098;13.716;2022-07-12T10:58:39;0.10;;;0.10;;
7557;SDS011;3820;51.098;13.716;2022-07-12T11:01:20;0.20;;;0.10;;
7557;SDS011;3820;51.098;13.716;2022-07-12T11:04:08;1.52;;;0.30;;
7557;SDS011;3820;51.098;13.716;2022-07-12T11:06:36;0.10;;;0.10;;
7557;SDS011;3820;51.098;13.716;2022-07-12T11:09:05;0.15;;;0.15;;
7557;SDS011;3820;51.098;13.716;2022-07-12T11:11:34;0.08;;;0.08;;
7557;SDS011;3820;51.098;13.716;2022-07-12T11:14:07;0.10;;;0.10;;
7557;SDS011;3820;51.098;13.716;2022-07-12T11:16:33;0.20;;;0.20;;
7557;SDS011;3820;51.098;13.716;2022-07-12T11:19:00;0.10;;;0.10;;
7557;SDS011;3820;51.098;13.716;2022-07-12T11:21:26;0.10;;;0.10;;
7557;SDS011;3820;51.098;13.716;2022-07-12T11:23:53;0.20;;;0.20;;
7557;SDS011;3820;51.098;13.716;2022-07-12T11:26:20;0.20;;;0.20;;
7557;SDS011;3820;51.098;13.716;2022-07-12T11:28:46;0.10;;;0.10;;
7557;SDS011;3820;51.098;13.716;2022-07-12T11:31:16;0.22;;;0.20;;
7557;SDS011;3820;51.098;13.716;2022-07-12T11:33:47;0.20;;;0.20;;
7557;SDS011;3820;51.098;13.716;2022-07-12T11:36:14;0.10;;;0.10;;
7557;SDS011;3820;51.098;13.716;2022-07-12T11:38:42;0.05;;;0.05;;
7557;SDS011;3820;51.098;13.716;2022-07-12T11:41:12;1.08;;;0.30;;
7557;SDS011;3820;51.098;13.716;2022-07-12T11:43:40;0.10;;;0.10;;
7557;SDS011;3820;51.098;13.716;2022-07-12T11:46:07;0.10;;;0.10;;
7557;SDS011;3820;51.098;13.716;2022-07-12T11:48:35;1.08;;;0.30;;
7557;SDS011;3820;51.098;13.716;2022-07-12T11:51:03;0.63;;;0.30;;
7557;SDS011;3820;51.098;13.716;2022-07-12T11:53:32;0.30;;;0.15;;
7557;SDS011;3820;51.098;13.716;2022-07-12T11:56:00;0.10;;;0.10;;
7557;SDS011;3820;51.098;13.716;2022-07-12T11:58:27;0.20;;;0.20;;
7557;SDS011;3820;51.098;13.716;2022-07-12T12:00:55;0.20;;;0.20;;
7557;SDS011;3820;51.098;13.716;2022-07-12T12:03:22;0.13;;;0.13;;
7557;SDS011;3820;51.098;13.716;2022-07-12T12:05:50;0.73;;;0.15;;
7557;SDS011;3820;51.098;13.716;2022-07-12T12:08:21;0.20;;;0.20;;
7557;SDS011;3820;51.098;13.716;2022-07-12T12:10:55;0.20;;;0.20;;
7557;SDS011;3820;51.098;13.716;2022-07-12T12:13:26;0.05;;;0.05;;
7557;SDS011;3820;51.098;13.716;2022-07-12T12:15:57;0.40;;;0.30;;
7557;SDS011;3820;51.098;13.716;2022-07-12T12:21:10;0.55;;;0.50;;
7557;SDS011;3820;51.098;13.716;2022-07-12T12:23:39;0.10;;;0.10;;
7557;SDS011;3820;51.098;13.716;2022-07-12T12:26:08;0.20;;;0.20;;
7557;SDS011;3820;51.098;13.716;2022-07-12T12:28:45;0.20;;;0.20;;
7557;SDS011;3820;51.098;13.716;2022-07-12T12:31:13;0.10;;;0.10;;
7557;SDS011;3820;51.098;13.716;2022-07-12T12:33:41;0.45;;;0.43;;
7557;SDS011;3820;51.098;13.716;2022-07-12T12:36:15;1.38;;;0.40;;
7557;SDS011;3820;51.098;13.716;2022-07-12T12:38:43;0.10;;;0.10;;
7557;SDS011;3820;51.098;13.716;2022-07-12T12:41:10;0.15;;;0.15;;
7557;SDS011;3820;51.098;13.716;2022-07-12T12:43:38;0.20;;;0.20;;
7557;SDS011;3820;51.098;13.716;2022-07-12T12:46:05;0.30;;;0.10;;
7557;SDS011;3820;51.098;13.716;2022-07-12T12:48:33;0.30;;;0.30;;
7557;SDS011;3820;51.098;13.716;2022-07-12T12:53:30;1.05;;;0.50;;
7557;SDS011;3820;51.098;13.716;2022-07-12T12:55:56;0.38;;;0.38;;
7557;SDS011;3820;51.098;13.716;2022-07-12T12:58:23;0.35;;;0.20;;
7557;SDS011;3820;51.098;13.716;2022-07-12T13:00:51;0.10;;;0.10;;
7557;SDS011;3820;51.098;13.716;2022-07-12T13:03:20;0.10;;;0.10;;
7557;SDS011;3820;51.098;13.716;2022-07-12T13:05:47;0.50;;;0.40;;
7557;SDS011;3820;51.098;13.716;2022-07-12T13:08:14;4.95;;;0.30;;
7557;SDS011;3820;51.098;13.716;2022-07-12T13:10:41;0.75;;;0.20;;
7557;SDS011;3820;51.098;13.716;2022-07-12T13:13:09;0.30;;;0.22;;
7557;SDS011;3820;51.098;13.716;2022-07-12T13:15:43;0.20;;;0.20;;
7557;SDS011;3820;51.098;13.716;2022-07-12T13:18:09;0.15;;;0.15;;
7557;SDS011;3820;51.098;13.716;2022-07-12T13:20:36;0.20;;;0.20;;
7557;SDS011;3820;51.098;13.716;2022-07-12T13:23:02;0.30;;;0.30;;
7557;SDS011;3820;51.098;13.716;2022-07-12T13:25:30;0.30;;;0.30;;
7557;SDS011;3820;51.098;13.716;2022-07-12T13:27:57;0.15;;;0.10;;
7557;SDS011;3820;51.098;13.716;2022-07-12T13:30:23;0.10;;;0.10;;
7557;SDS011;3820;51.098;13.716;2022-07-12T13:32:49;0.28;;;0.28;;
7557;SDS011;3820;51.098;13.716;2022-07-12T13:35:16;0.30;;;0.28;;
7557;SDS011;3820;51.098;13.716;2022-07-12T13:37:43;0.20;;;0.20;;
7557;SDS011;3820;51.098;13.716;2022-07-12T13:40:10;0.30;;;0.30;;
7557;SDS011;3820;51.098;13.716;2022-07-12T13:42:49;0.50;;;0.50;;
7557;SDS011;3820;51.098;13.716;2022-07-12T13:45:24;0.15;;;0.10;;
7557;SDS011;3820;51.098;13.716;2022-07-12T13:47:52;0.20;;;0.20;;
7557;SDS011;3820;51.098;13.716;2022-07-12T13:50:19;0.20;;;0.20;;
7557;SDS011;3820;51.098;13.716;2022-07-12T13:52:52;0.10;;;0.10;;
7557;SDS011;3820;51.098;13.716;2022-07-12T13:55:20;0.20;;;0.20;;
7557;SDS011;3820;51.098;13.716;2022-07-12T13:57:46;1.23;;;0.75;;
7557;SDS011;3820;51.098;13.716;2022-07-12T14:00:16;0.20;;;0.20;;
7557;SDS011;3820;51.098;13.716;2022-07-12T14:02:45;0.20;;;0.20;;
7557;SDS011;3820;51.098;13.716;2022-07-12T14:05:20;0.30;;;0.30;;
7557;SDS011;3820;51.098;13.716;2022-07-12T14:07:46;0.47;;;0.20;;
7557;SDS011;3820;51.098;13.716;2022-07-12T14:10:13;0.28;;;0.28;;
7557;SDS011;3820;51.098;13.716;2022-07-12T14:12:40;0.52;;;0.40;;
7557;SDS011;3820;51.098;13.716;2022-07-12T14:15:08;0.30;;;0.30;;
7557;SDS011;3820;51.098;13.716;2022-07-12T14:17:45;0.25;;;0.20;;
7557;SDS011;3820;51.098;13.716;2022-07-12T14:20:19;0.63;;;0.40;;
7557;SDS011;3820;51.098;13.716;2022-07-12T14:22:47;1.45;;;0.77;;
7557;SDS011;3820;51.098;13.716;2022-07-12T14:25:15;0.10;;;0.10;;
7557;SDS011;3820;51.098;13.716;2022-07-12T14:27:42;0.45;;;0.20;;
7557;SDS011;3820;51.098;13.716;2022-07-12T14:30:10;0.30;;;0.20;;
7557;SDS011;3820;51.098;13.716;2022-07-12T14:32:37;0.30;;;0.30;;
7557;SDS011;3820;51.098;13.716;2022-07-12T14:35:05;0.30;;;0.10;;
7557;SDS011;3820;51.098;13.716;2022-07-12T14:37:32;0.20;;;0.20;;
7557;SDS011;3820;51.098;13.716;2022-07-12T14:40:00;0.20;;;0.20;;
7557;SDS011;3820;51.098;13.716;2022-07-12T14:42:28;0.57;;;0.20;;
7557;SDS011;3820;51.098;13.716;2022-07-12T14:44:55;0.32;;;0.30;;
7557;SDS011;3820;51.098;13.716;2022-07-12T14:47:22;0.10;;;0.10;;
7557;SDS011;3820;51.098;13.716;2022-07-12T14:49:49;0.10;;;0.10;;
7557;SDS011;3820;51.098;13.716;2022-07-12T14:52:16;0.57;;;0.25;;
7557;SDS011;3820;51.098;13.716;2022-07-12T14:54:42;0.38;;;0.25;;
7557;SDS011;3820;51.098;13.716;2022-07-12T14:57:09;0.20;;;0.20;;
7557;SDS011;3820;51.098;13.716;2022-07-12T14:59:35;0.75;;;0.25;;
7557;SDS011;3820;51.098;13.716;2022-07-12T15:02:01;0.15;;;0.15;;
7557;SDS011;3820;51.098;13.716;2022-07-12T15:04:28;0.20;;;0.20;;
7557;SDS011;3820;51.098;13.716;2022-07-12T15:06:56;0.30;;;0.28;;
7557;SDS011;3820;51.098;13.716;2022-07-12T15:09:22;0.20;;;0.10;;
7557;SDS011;3820;51.098;13.716;2022-07-12T15:11:49;0.20;;;0.20;;
7557;SDS011;3820;51.098;13.716;2022-07-12T15:14:15;0.20;;;0.20;;
7557;SDS011;3820;51.098;13.716;2022-07-12T15:16:42;0.22;;;0.22;;
7557;SDS011;3820;51.098;13.716;2022-07-12T15:19:09;1.52;;;0.30;;
7557;SDS011;3820;51.098;13.716;2022-07-12T15:21:35;0.13;;;0.13;;
7557;SDS011;3820;51.098;13.716;2022-07-12T15:24:02;0.20;;;0.20;;
7557;SDS011;3820;51.098;13.716;2022-07-12T15:26:29;0.30;;;0.30;;
7557;SDS011;3820;51.098;13.716;2022-07-12T15:29:01;0.30;;;0.30;;
7557;SDS011;3820;51.098;13.716;2022-07-12T15:31:29;0.40;;;0.40;;
7557;SDS011;3820;51.098;13.716;2022-07-12T15:33:57;0.80;;;0.40;;
7557;SDS011;3820;51.098;13.716;2022-07-12T15:36:24;2.10;;;0.40;;
7557;SDS011;3820;51.098;13.716;2022-07-12T15:38:50;0.20;;;0.20;;
7557;SDS011;3820;51.098;13.716;2022-07-12T15:41:18;0.22;;;0.20;;
7557;SDS011;3820;51.098;13.716;2022-07-12T15:43:44;0.52;;;0.35;;
7557;SDS011;3820;51.098;13.716;2022-07-12T15:46:12;1.50;;;0.50;;
7557;SDS011;3820;51.098;13.716;2022-07-12T15:48:38;0.28;;;0.28;;
7557;SDS011;3820;51.098;13.716;2022-07-12T15:51:05;0.30;;;0.30;;
7557;SDS011;3820;51.098;13.716;2022-07-12T15:53:32;0.10;;;0.10;;
7557;SDS011;3820;51.098;13.716;2022-07-12T15:56:00;0.20;;;0.20;;
7557;SDS011;3820;51.098;13.716;2022-07-12T15:58:32;0.10;;;0.10;;
7557;SDS011;3820;51.098;13.716;2022-07-12T16:01:00;0.25;;;0.25;;
7557;SDS011;3820;51.098;13.716;2022-07-12T16:03:28;0.30;;;0.30;;
7557;SDS011;3820;51.098;13.716;2022-07-12T16:05:55;0.40;;;0.40;;